Time;durP1;ratioP1;P1;durP2;ratioP2;P2;SDS_P1;SDS_P2;PMS_P1;PMS_P2;Temp;Humidity;BMP_temperature;BMP_pressure;BME280_temperature;BME280_humidity;BME280_pressure;Samples;Min_cycle;Max_cycle;Signal;HPM_P1;HPM_P2
2021/04/11 00:01:00;;;;;;;2.70;2.05;;;23.00;28.90;;;;;;5036705;28;20345;-52
2021/04/11 00:03:28;;;;;;;2.80;1.80;;;23.00;28.40;;;;;;5039210;28;20079;-52
2021/04/11 00:05:54;;;;;;;2.05;1.60;;;23.00;28.40;;;;;;5037096;28;20053;-46
2021/04/11 00:08:21;;;;;;;2.47;1.67;;;23.00;28.40;;;;;;5054228;28;20057;-50
2021/04/11 00:10:54;;;;;;;1.77;1.52;;;22.90;28.30;;;;;;5055955;28;20041;-54
2021/04/11 00:13:30;;;;;;;1.70;1.60;;;23.00;28.40;;;;;;5043277;28;20037;-52
2021/04/11 00:15:56;;;;;;;1.85;1.40;;;23.00;28.30;;;;;;5056099;28;20098;-54
2021/04/11 00:18:21;;;;;;;1.67;1.20;;;22.90;28.30;;;;;;5048045;28;20034;-51
2021/04/11 00:20:49;;;;;;;2.05;1.50;;;22.90;28.30;;;;;;5056002;28;20064;-52
2021/04/11 00:23:15;;;;;;;1.40;1.30;;;22.90;28.30;;;;;;5045591;28;20332;-48
2021/04/11 00:25:41;;;;;;;1.40;1.27;;;22.90;28.30;;;;;;5035665;28;20341;-52
2021/04/11 00:28:12;;;;;;;1.30;1.08;;;22.90;28.30;;;;;;5050041;28;20060;-48
2021/04/11 00:30:38;;;;;;;1.55;1.20;;;22.90;28.30;;;;;;5055441;28;20045;-49
2021/04/11 00:33:07;;;;;;;1.25;0.90;;;22.90;28.30;;;;;;5048776;28;20040;-51
2021/04/11 00:35:33;;;;;;;1.42;0.95;;;22.80;28.30;;;;;;5035811;28;20041;-49
2021/04/11 00:37:59;;;;;;;1.35;0.90;;;22.80;28.20;;;;;;5035608;28;20033;-55
2021/04/11 00:40:35;;;;;;;1.48;1.35;;;22.80;28.20;;;;;;5042616;28;20044;-46
2021/04/11 00:43:07;;;;;;;1.10;1.00;;;22.90;28.30;;;;;;5046054;28;20104;-54
2021/04/11 00:45:52;;;;;;;1.27;0.90;;;22.80;28.20;;;;;;5045000;28;20033;-52
2021/04/11 00:48:20;;;;;;;1.27;1.08;;;22.90;28.20;;;;;;5038795;28;20399;-45
2021/04/11 00:50:57;;;;;;;1.13;1.00;;;22.80;28.20;;;;;;5036508;28;20345;-54
2021/04/11 00:53:23;;;;;;;1.00;0.90;;;22.80;28.20;;;;;;5045480;28;20026;-53
2021/04/11 00:55:49;;;;;;;1.17;0.85;;;22.80;28.20;;;;;;5025639;28;20021;-53
2021/04/11 00:58:17;;;;;;;1.60;1.10;;;22.80;28.20;;;;;;5037204;28;20025;-50
2021/04/11 01:00:43;;;;;;;0.93;0.80;;;22.80;28.20;;;;;;5017381;28;20029;-51
2021/04/11 01:03:14;;;;;;;0.77;0.70;;;22.80;28.20;;;;;;5022231;28;20025;-50
2021/04/11 01:05:41;;;;;;;1.25;1.13;;;22.80;28.20;;;;;;5041938;28;20352;-53
2021/04/11 01:08:11;;;;;;;0.82;0.70;;;22.70;28.10;;;;;;5033572;28;20031;-50
2021/04/11 01:10:46;;;;;;;0.82;0.60;;;22.70;28.20;;;;;;5030843;28;20069;-48
2021/04/11 01:13:13;;;;;;;1.48;0.95;;;22.70;28.10;;;;;;5042719;28;20021;-54
2021/04/11 01:15:40;;;;;;;0.85;0.70;;;22.70;28.10;;;;;;5037546;28;20017;-56
2021/04/11 01:18:06;;;;;;;0.70;0.70;;;22.70;28.10;;;;;;5049841;28;20039;-48
2021/04/11 01:20:33;;;;;;;0.90;0.70;;;22.70;28.10;;;;;;5049390;28;20032;-53
2021/04/11 01:23:07;;;;;;;1.08;0.75;;;22.70;28.10;;;;;;5047961;28;20346;-55
2021/04/11 01:25:35;;;;;;;0.85;0.60;;;22.70;28.10;;;;;;5040095;28;20033;-47
2021/04/11 01:28:08;;;;;;;0.75;0.57;;;22.70;28.10;;;;;;5050289;28;20064;-54
2021/04/11 01:30:37;;;;;;;0.90;0.70;;;22.70;28.10;;;;;;5052870;28;20043;-52
2021/04/11 01:33:17;;;;;;;0.73;0.63;;;22.60;28.00;;;;;;5027669;28;20033;-52
2021/04/11 01:35:45;;;;;;;0.55;0.47;;;22.60;28.00;;;;;;5049735;28;20033;-52
2021/04/11 01:38:13;;;;;;;0.90;0.80;;;22.60;28.00;;;;;;5029838;28;20947;-55
2021/04/11 01:40:39;;;;;;;0.80;0.60;;;22.60;28.00;;;;;;5033121;28;20041;-56
2021/04/11 01:43:08;;;;;;;0.63;0.50;;;22.60;28.00;;;;;;5023342;28;20024;-54
2021/04/11 01:45:36;;;;;;;0.60;0.60;;;22.60;28.00;;;;;;5052500;28;20471;-51
2021/04/11 01:48:04;;;;;;;0.98;0.60;;;22.60;28.00;;;;;;5034394;28;20128;-55
2021/04/11 01:50:30;;;;;;;0.70;0.50;;;22.60;28.00;;;;;;5043039;28;20041;-56
2021/04/11 01:52:58;;;;;;;0.77;0.45;;;22.60;28.00;;;;;;5032734;28;20036;-54
2021/04/11 01:55:27;;;;;;;0.82;0.73;;;22.60;28.00;;;;;;5021780;28;20018;-52
2021/04/11 01:57:55;;;;;;;0.93;0.50;;;22.60;28.00;;;;;;5028737;28;20087;-55
2021/04/11 02:00:21;;;;;;;0.52;0.50;;;22.50;28.00;;;;;;5016215;28;20460;-56
2021/04/11 02:02:55;;;;;;;0.70;0.50;;;22.50;28.00;;;;;;5028968;28;20055;-53
2021/04/11 02:05:22;;;;;;;0.90;0.50;;;22.50;28.00;;;;;;5036227;28;20068;-53
2021/04/11 02:07:53;;;;;;;0.50;0.50;;;22.50;28.00;;;;;;5031282;28;20127;-50
2021/04/11 02:10:27;;;;;;;1.02;0.50;;;22.50;28.00;;;;;;5036046;28;20041;-58
2021/04/11 02:13:11;;;;;;;0.75;0.50;;;22.50;28.00;;;;;;5041144;28;20133;-51
2021/04/11 02:15:43;;;;;;;0.80;0.47;;;22.50;28.00;;;;;;5033528;28;20121;-54
2021/04/11 02:18:13;;;;;;;0.80;0.57;;;22.50;28.00;;;;;;5031848;28;20124;-57
2021/04/11 02:20:42;;;;;;;0.82;0.50;;;22.50;28.00;;;;;;5016554;28;20112;-52
2021/04/11 02:23:11;;;;;;;0.55;0.40;;;22.50;28.00;;;;;;5025476;28;20338;-53
2021/04/11 02:25:46;;;;;;;0.75;0.40;;;22.50;28.10;;;;;;5016252;28;20034;-53
2021/04/11 02:28:14;;;;;;;0.40;0.40;;;22.40;28.00;;;;;;5049219;28;20108;-56
2021/04/11 02:30:50;;;;;;;0.50;0.40;;;22.40;28.00;;;;;;5035338;28;20039;-53
2021/04/11 02:33:19;;;;;;;0.50;0.30;;;22.50;28.00;;;;;;5026058;28;20025;-57
2021/04/11 02:35:46;;;;;;;0.30;0.30;;;22.40;28.00;;;;;;5016510;28;20025;-51
2021/04/11 02:38:14;;;;;;;0.40;0.35;;;22.40;28.00;;;;;;5020718;28;20465;-52
2021/04/11 02:40:45;;;;;;;0.22;0.22;;;22.40;28.00;;;;;;5045012;28;20076;-53
2021/04/11 02:43:17;;;;;;;0.70;0.43;;;22.40;28.00;;;;;;5030791;28;20040;-53
2021/04/11 02:45:46;;;;;;;0.75;0.28;;;22.40;28.00;;;;;;5026242;28;20029;-50
2021/04/11 02:48:14;;;;;;;0.68;0.43;;;22.40;28.00;;;;;;5019959;28;20150;-50
2021/04/11 02:51:02;;;;;;;0.90;0.50;;;22.40;28.10;;;;;;5039819;28;20434;-54
2021/04/11 02:53:37;;;;;;;0.45;0.30;;;22.40;28.10;;;;;;5016226;28;20125;-57
2021/04/11 02:56:07;;;;;;;0.25;0.25;;;22.40;28.10;;;;;;5021383;28;20044;-52
2021/04/11 02:58:37;;;;;;;0.38;0.30;;;22.40;28.10;;;;;;5035110;28;20063;-55
2021/04/11 03:01:08;;;;;;;1.27;0.50;;;22.40;28.10;;;;;;5030380;28;20093;-55
2021/04/11 03:03:36;;;;;;;0.88;0.45;;;22.40;28.10;;;;;;5023733;28;20040;-50
2021/04/11 03:06:12;;;;;;;0.30;0.30;;;22.40;28.10;;;;;;5043666;28;20429;-55
2021/04/11 03:08:41;;;;;;;0.93;0.40;;;22.40;28.10;;;;;;5057307;28;20330;-54
2021/04/11 03:11:15;;;;;;;0.95;0.30;;;22.30;28.10;;;;;;5030587;28;20049;-51
2021/04/11 03:13:42;;;;;;;0.30;0.28;;;22.40;28.10;;;;;;5019116;28;20033;-55
2021/04/11 03:16:08;;;;;;;1.40;0.40;;;22.30;28.10;;;;;;5020966;28;20044;-56
2021/04/11 03:18:36;;;;;;;0.70;0.40;;;22.40;28.10;;;;;;5037011;28;20034;-52
2021/04/11 03:21:06;;;;;;;0.30;0.30;;;22.30;28.10;;;;;;5021291;28;20337;-54
2021/04/11 03:23:33;;;;;;;0.40;0.30;;;22.30;28.10;;;;;;5057173;28;20036;-52
2021/04/11 03:26:22;;;;;;;0.40;0.30;;;22.30;28.10;;;;;;5028783;28;20040;-50
2021/04/11 03:28:53;;;;;;;0.30;0.30;;;22.30;28.10;;;;;;5036699;28;20112;-54
2021/04/11 03:31:25;;;;;;;0.35;0.25;;;22.30;28.10;;;;;;5033507;28;20082;-53
2021/04/11 03:33:57;;;;;;;0.40;0.20;;;22.30;28.10;;;;;;5023597;28;20029;-49
2021/04/11 03:36:25;;;;;;;0.25;0.20;;;22.30;28.20;;;;;;5032066;28;20096;-58
2021/04/11 03:38:52;;;;;;;0.40;0.30;;;22.30;28.20;;;;;;5038646;28;20032;-53
2021/04/11 03:41:19;;;;;;;0.63;0.30;;;22.30;28.20;;;;;;5053162;28;20021;-53
2021/04/11 03:43:53;;;;;;;0.32;0.30;;;22.20;28.10;;;;;;5018812;28;20120;-55
2021/04/11 03:46:32;;;;;;;0.60;0.25;;;22.20;28.10;;;;;;5021853;28;20025;-55
2021/04/11 03:49:12;;;;;;;0.30;0.28;;;22.20;28.20;;;;;;5038804;28;20049;-51
2021/04/11 03:51:42;;;;;;;0.40;0.30;;;22.20;28.20;;;;;;5029290;28;20026;-55
2021/04/11 03:54:19;;;;;;;0.50;0.32;;;22.20;28.20;;;;;;5018935;28;20033;-52
2021/04/11 03:57:07;;;;;;;0.20;0.20;;;22.20;28.20;;;;;;5034376;28;20029;-49
2021/04/11 03:59:59;;;;;;;0.20;0.20;;;22.20;28.20;;;;;;5020105;28;20029;-51
2021/04/11 04:02:28;;;;;;;0.30;0.20;;;22.20;28.30;;;;;;5037362;28;20059;-53
2021/04/11 04:04:59;;;;;;;0.10;0.10;;;22.20;28.20;;;;;;5033494;28;20048;-53
2021/04/11 04:07:26;;;;;;;0.35;0.20;;;22.20;28.20;;;;;;5024160;28;20052;-53
2021/04/11 04:10:02;;;;;;;0.20;0.20;;;22.20;28.20;;;;;;5039032;28;20124;-55
2021/04/11 04:12:53;;;;;;;0.30;0.15;;;22.20;28.20;;;;;;5027781;28;20025;-50
2021/04/11 04:15:32;;;;;;;0.10;0.10;;;22.20;28.30;;;;;;5026451;28;20423;-51
2021/04/11 04:18:28;;;;;;;0.20;0.10;;;22.10;28.20;;;;;;5031143;28;20120;-50
2021/04/11 04:21:18;;;;;;;0.20;0.20;;;22.20;28.20;;;;;;5046756;28;20048;-56
2021/04/11 04:24:13;;;;;;;0.40;0.20;;;22.20;28.20;;;;;;5036091;28;20035;-50
2021/04/11 04:26:42;;;;;;;0.30;0.20;;;22.10;28.30;;;;;;5034492;28;20133;-50
2021/04/11 04:29:40;;;;;;;0.32;0.15;;;22.10;28.30;;;;;;5033308;28;20060;-53
2021/04/11 04:32:29;;;;;;;0.20;0.20;;;22.10;28.30;;;;;;5024544;28;20029;-52
2021/04/11 04:35:30;;;;;;;0.25;0.25;;;22.10;28.30;;;;;;5035653;28;20091;-53
2021/04/11 04:38:22;;;;;;;0.10;0.10;;;22.10;28.30;;;;;;5025228;28;20092;-54
2021/04/11 04:41:27;;;;;;;0.28;0.20;;;22.10;28.30;;;;;;5037329;28;20031;-52
2021/04/11 04:44:00;;;;;;;0.28;0.10;;;22.10;28.30;;;;;;4970298;28;20049;-48
2021/04/11 04:46:40;;;;;;;0.50;0.20;;;22.10;28.30;;;;;;5018640;28;20030;-54
2021/04/11 04:49:33;;;;;;;0.10;0.10;;;22.10;28.30;;;;;;5017562;28;20299;-50
2021/04/11 04:52:11;;;;;;;0.10;0.10;;;22.10;28.30;;;;;;5032391;28;20392;-51
2021/04/11 04:54:37;;;;;;;0.60;0.10;;;22.00;28.30;;;;;;5037467;28;20039;-52
2021/04/11 04:57:17;;;;;;;0.20;0.20;;;22.10;28.30;;;;;;5027080;28;20029;-57
2021/04/11 05:00:07;;;;;;;0.38;0.20;;;22.10;28.30;;;;;;5029339;28;20112;-52
2021/04/11 05:03:06;;;;;;;0.20;0.13;;;22.10;28.30;;;;;;5016945;28;20511;-51
2021/04/11 05:05:39;;;;;;;0.15;0.10;;;22.00;28.30;;;;;;5042928;28;20037;-46
2021/04/11 05:08:08;;;;;;;0.20;0.10;;;22.10;28.40;;;;;;5026083;28;20098;-51
2021/04/11 05:10:48;;;;;;;0.22;0.17;;;22.00;28.30;;;;;;5037767;28;20107;-50
2021/04/11 05:13:30;;;;;;;0.38;0.30;;;22.10;28.40;;;;;;5025980;28;20513;-50
2021/04/11 05:16:14;;;;;;;0.20;0.20;;;22.00;28.30;;;;;;5029037;28;20061;-51
2021/04/11 05:18:52;;;;;;;0.10;0.10;;;22.00;28.30;;;;;;5028472;28;20391;-52
2021/04/11 05:21:27;;;;;;;0.13;0.13;;;22.00;28.30;;;;;;5026016;28;20033;-56
2021/04/11 05:24:11;;;;;;;0.30;0.17;;;22.00;28.30;;;;;;5029369;28;20033;-53
2021/04/11 05:27:00;;;;;;;0.47;0.20;;;22.00;28.40;;;;;;5050532;28;20044;-51
2021/04/11 05:29:43;;;;;;;0.43;0.40;;;22.00;28.30;;;;;;5016747;28;20125;-54
2021/04/11 05:32:12;;;;;;;0.22;0.10;;;22.00;28.40;;;;;;5043794;28;20026;-52
2021/04/11 05:34:38;;;;;;;0.30;0.20;;;22.00;28.40;;;;;;5042067;28;20060;-53
2021/04/11 05:37:12;;;;;;;0.10;0.10;;;22.00;28.40;;;;;;5048437;28;20060;-46
2021/04/11 05:39:56;;;;;;;;;;;22.00;28.40;;;;;;5035510;28;20021;-54
2021/04/11 05:42:41;;;;;;;0.08;0.08;;;22.00;28.40;;;;;;5050504;28;19996;-51
2021/04/11 05:45:31;;;;;;;0.52;0.30;;;22.00;28.40;;;;;;5036893;28;20033;-53
2021/04/11 05:48:18;;;;;;;0.00;0.00;;;22.00;28.40;;;;;;5040320;28;20036;-57
2021/04/11 05:51:11;;;;;;;0.20;0.10;;;22.00;28.40;;;;;;5046386;28;20032;-51
2021/04/11 05:54:01;;;;;;;0.13;0.10;;;22.00;28.40;;;;;;5044845;28;20029;-56
2021/04/11 05:56:32;;;;;;;0.10;0.10;;;22.00;28.40;;;;;;5041342;28;20082;-51
2021/04/11 05:59:02;;;;;;;0.10;0.08;;;21.90;28.30;;;;;;5041995;28;20040;-51
2021/04/11 06:01:37;;;;;;;0.13;0.10;;;21.90;28.30;;;;;;5043297;28;20036;-52
2021/04/11 06:04:14;;;;;;;0.20;0.15;;;22.00;28.30;;;;;;5045731;28;20025;-53
2021/04/11 06:06:39;;;;;;;0.00;0.00;;;22.00;28.30;;;;;;5045318;28;20497;-46
2021/04/11 06:09:31;;;;;;;0.20;0.13;;;21.90;28.30;;;;;;5036845;28;20112;-50
2021/04/11 06:12:10;;;;;;;0.17;0.10;;;21.90;28.30;;;;;;5029608;28;20098;-52
2021/04/11 06:15:05;;;;;;;0.10;0.10;;;21.90;28.30;;;;;;5045913;28;20076;-49
2021/04/11 06:17:31;;;;;;;0.20;0.10;;;21.90;28.40;;;;;;5047511;28;20041;-52
2021/04/11 06:19:57;;;;;;;0.10;0.10;;;21.90;28.40;;;;;;5034757;28;20091;-50
2021/04/11 06:22:42;;;;;;;0.10;0.10;;;21.90;28.40;;;;;;5040725;28;20308;-52
2021/04/11 06:25:19;;;;;;;0.17;0.10;;;21.90;28.40;;;;;;5043358;28;20431;-55
2021/04/11 06:28:13;;;;;;;0.30;0.30;;;21.90;28.40;;;;;;5034907;28;20460;-53
2021/04/11 06:30:53;;;;;;;0.10;0.10;;;21.90;28.40;;;;;;5045133;28;20100;-51
2021/04/11 06:33:40;;;;;;;0.55;0.10;;;21.90;28.90;;;;;;5043903;28;20174;-53
2021/04/11 06:36:11;;;;;;;0.17;0.10;;;21.90;28.40;;;;;;5051346;28;20051;-52
2021/04/11 06:38:48;;;;;;;0.45;0.20;;;21.90;28.40;;;;;;5038617;28;20036;-52
2021/04/11 06:41:41;;;;;;;0.45;0.20;;;21.90;28.40;;;;;;5049813;28;20044;-54
2021/04/11 06:44:36;;;;;;;0.95;0.10;;;21.90;28.50;;;;;;5042772;28;20025;-52
2021/04/11 06:47:17;;;;;;;0.10;0.10;;;21.90;28.50;;;;;;5026002;28;20083;-55
2021/04/11 06:50:13;;;;;;;0.10;0.10;;;21.90;28.50;;;;;;5044790;28;20407;-53
2021/04/11 06:52:53;;;;;;;0.20;0.10;;;22.00;28.50;;;;;;5051102;28;20076;-54
2021/04/11 06:55:40;;;;;;;0.15;0.10;;;22.00;28.40;;;;;;5048414;28;20029;-55
2021/04/11 06:58:26;;;;;;;0.60;0.15;;;22.00;28.40;;;;;;5047953;28;20426;-54
2021/04/11 07:01:26;;;;;;;0.93;0.20;;;22.10;28.40;;;;;;5036799;28;20774;-54
2021/04/11 07:04:19;;;;;;;0.43;0.20;;;22.10;28.30;;;;;;5051723;28;20074;-46
2021/04/11 07:07:13;;;;;;;0.10;0.10;;;22.10;28.30;;;;;;5046571;28;20045;-52
2021/04/11 07:10:07;;;;;;;0.68;0.20;;;22.20;28.50;;;;;;5027506;28;20398;-53
2021/04/11 07:13:10;;;;;;;0.20;0.17;;;22.20;28.70;;;;;;5039671;28;20025;-53
2021/04/11 07:15:54;;;;;;;0.22;0.20;;;22.20;28.80;;;;;;5036210;28;20422;-51
2021/04/11 07:18:47;;;;;;;1.02;0.20;;;22.30;28.90;;;;;;5045798;28;20049;-49
2021/04/11 07:21:48;;;;;;;0.25;0.20;;;22.40;28.80;;;;;;5042073;28;20429;-56
2021/04/11 07:24:44;;;;;;;0.32;0.10;;;22.40;28.70;;;;;;5046548;28;20033;-51
2021/04/11 07:27:13;;;;;;;0.10;0.10;;;22.50;28.60;;;;;;5054465;28;20044;-50
2021/04/11 07:29:53;;;;;;;0.30;0.30;;;22.50;28.50;;;;;;5043940;28;20041;-56
2021/04/11 07:32:55;;;;;;;0.28;0.15;;;22.60;28.50;;;;;;5040183;28;20108;-53
2021/04/11 07:35:51;;;;;;;0.13;0.10;;;22.70;28.40;;;;;;5047350;28;20076;-54
2021/04/11 07:38:47;;;;;;;0.40;0.20;;;22.80;28.30;;;;;;5036070;28;20037;-54
2021/04/11 07:41:36;;;;;;;0.65;0.30;;;22.90;28.30;;;;;;5054524;28;20032;-54
2021/04/11 07:44:45;;;;;;;0.40;0.20;;;23.00;28.30;;;;;;5054129;28;20111;-47
2021/04/11 07:47:38;;;;;;;0.43;0.10;;;23.00;28.30;;;;;;5053361;28;20065;-52
2021/04/11 07:50:32;;;;;;;0.10;0.10;;;23.00;28.20;;;;;;5040477;28;20047;-55
2021/04/11 07:53:17;;;;;;;1.93;0.20;;;23.10;28.20;;;;;;5036225;28;20041;-50
2021/04/11 07:55:56;;;;;;;;;;;23.20;28.20;;;;;;5051156;28;20384;-57
2021/04/11 07:58:42;;;;;;;0.43;0.20;;;23.20;28.10;;;;;;5042449;28;19909;-55
2021/04/11 08:01:40;;;;;;;0.50;0.10;;;23.20;28.00;;;;;;5050822;28;20118;-54
2021/04/11 08:04:39;;;;;;;0.20;0.10;;;23.20;27.90;;;;;;5038111;28;20044;-52
2021/04/11 08:07:10;;;;;;;0.43;0.10;;;23.30;27.90;;;;;;5045796;28;20075;-50
2021/04/11 08:10:11;;;;;;;0.17;0.10;;;23.30;27.80;;;;;;5055271;28;20338;-57
2021/04/11 08:12:59;;;;;;;0.10;0.10;;;23.40;27.70;;;;;;5041432;28;20036;-56
2021/04/11 08:15:40;;;;;;;0.22;0.10;;;23.40;27.70;;;;;;5046325;28;20021;-47
2021/04/11 08:18:12;;;;;;;0.17;0.10;;;23.40;27.60;;;;;;5040379;28;20051;-52
2021/04/11 08:21:00;;;;;;;0.43;0.10;;;23.40;27.60;;;;;;5049869;28;20174;-49
2021/04/11 08:23:42;;;;;;;0.35;0.20;;;23.50;27.60;;;;;;5036289;28;20024;-58
2021/04/11 08:26:54;;;;;;;0.28;0.10;;;23.50;27.50;;;;;;5040459;28;20033;-53
2021/04/11 08:29:42;;;;;;;0.10;0.10;;;23.50;27.40;;;;;;5054124;28;20025;-53
2021/04/11 08:32:41;;;;;;;0.30;0.20;;;23.50;27.40;;;;;;5055417;28;20029;-51
2021/04/11 08:35:46;;;;;;;0.20;0.13;;;23.50;27.30;;;;;;5059505;28;20040;-52
2021/04/11 08:38:31;;;;;;;;;;;23.50;27.30;;;;;;5040637;28;20456;-55
2021/04/11 08:41:14;;;;;;;0.10;0.10;;;23.50;27.30;;;;;;5046633;28;19909;-56
2021/04/11 08:44:11;;;;;;;0.20;0.13;;;23.50;27.30;;;;;;5035831;28;20055;-56
2021/04/11 08:47:05;;;;;;;1.05;0.10;;;23.50;27.20;;;;;;5035411;28;20130;-57
2021/04/11 08:49:58;;;;;;;0.30;0.10;;;23.50;27.20;;;;;;5031436;28;20046;-54
2021/04/11 08:53:02;;;;;;;0.10;0.10;;;23.40;27.10;;;;;;5017043;28;20076;-57
2021/04/11 08:55:34;;;;;;;0.55;0.10;;;23.40;27.10;;;;;;5022139;28;20400;-52
2021/04/11 08:58:30;;;;;;;0.13;0.10;;;23.40;27.10;;;;;;5036292;28;20057;-55
2021/04/11 09:01:18;;;;;;;0.65;0.25;;;23.40;27.10;;;;;;5046233;28;20033;-52
2021/04/11 09:04:08;;;;;;;0.10;0.10;;;23.40;27.10;;;;;;5048746;28;20057;-50
2021/04/11 09:06:48;;;;;;;0.10;0.10;;;23.40;27.10;;;;;;5038654;28;20041;-54
2021/04/11 09:09:38;;;;;;;0.32;0.20;;;23.40;27.10;;;;;;5036107;28;20028;-54
2021/04/11 09:12:13;;;;;;;0.47;0.25;;;23.40;27.10;;;;;;5046422;28;20056;-51
2021/04/11 09:14:54;;;;;;;0.17;0.10;;;23.40;27.10;;;;;;5055002;28;20032;-52
2021/04/11 09:18:00;;;;;;;0.65;0.20;;;23.40;27.10;;;;;;5048860;28;20128;-49
2021/04/11 09:20:35;;;;;;;0.10;0.10;;;23.40;27.00;;;;;;5020883;28;20021;-53
2021/04/11 09:23:33;;;;;;;0.22;0.10;;;23.40;27.10;;;;;;5042680;28;20032;-50
2021/04/11 09:26:47;;;;;;;4.70;2.65;;;23.40;27.10;;;;;;5025052;28;20342;-51
2021/04/11 09:29:43;;;;;;;6.55;3.65;;;23.40;27.40;;;;;;5043323;28;20033;-55
2021/04/11 09:32:21;;;;;;;8.27;5.85;;;23.40;28.10;;;;;;5042543;28;20429;-53
2021/04/11 09:35:15;;;;;;;8.60;5.28;;;23.30;28.90;;;;;;5038001;28;20037;-51
2021/04/11 09:38:08;;;;;;;11.75;6.55;;;23.30;29.90;;;;;;5042208;28;20364;-57
2021/04/11 09:40:51;;;;;;;9.40;5.80;;;23.40;31.30;;;;;;5046944;28;20033;-52
2021/04/11 09:43:35;;;;;;;10.82;6.13;;;23.40;32.60;;;;;;5045749;28;20035;-49
2021/04/11 09:46:04;;;;;;;10.15;5.75;;;23.50;33.40;;;;;;5041430;28;20444;-52
2021/04/11 09:48:47;;;;;;;7.68;5.10;;;23.50;33.30;;;;;;5035700;28;20073;-52
2021/04/11 09:51:51;;;;;;;6.90;4.50;;;23.60;33.50;;;;;;5034075;28;20107;-52
2021/04/11 09:54:24;;;;;;;6.32;3.75;;;23.60;33.20;;;;;;5017777;28;20025;-49
2021/04/11 09:57:27;;;;;;;5.63;3.65;;;23.70;32.80;;;;;;5034845;28;20041;-51
2021/04/11 10:00:16;;;;;;;4.68;2.78;;;23.80;32.40;;;;;;5022953;28;20045;-52
2021/04/11 10:02:41;;;;;;;6.15;3.28;;;23.80;32.20;;;;;;5042449;28;20121;-53
2021/04/11 10:05:39;;;;;;;6.97;3.45;;;23.80;32.40;;;;;;5044690;28;20068;-54
2021/04/11 10:08:20;;;;;;;6.20;3.10;;;23.80;32.40;;;;;;5026741;28;20053;-55
2021/04/11 10:11:21;;;;;;;4.07;2.40;;;23.80;32.00;;;;;;5035532;28;20115;-55
2021/04/11 10:13:59;;;;;;;7.78;3.45;;;23.80;31.90;;;;;;5021052;28;20045;-57
2021/04/11 10:16:30;;;;;;;4.07;2.30;;;23.80;32.00;;;;;;5017771;28;20064;-57
2021/04/11 10:19:23;;;;;;;5.10;2.67;;;23.80;32.10;;;;;;5035190;28;20033;-57
2021/04/11 10:21:58;;;;;;;3.92;2.10;;;23.80;32.20;;;;;;5046241;28;20360;-52
2021/04/11 10:24:32;;;;;;;4.00;2.00;;;23.90;32.40;;;;;;5054128;28;20039;-57
2021/04/11 10:27:12;;;;;;;4.60;2.38;;;23.80;32.50;;;;;;5032546;28;20032;-55
2021/04/11 10:29:42;;;;;;;2.72;1.90;;;23.90;32.70;;;;;;5043094;28;20038;-52
2021/04/11 10:32:31;;;;;;;3.25;1.65;;;23.90;32.60;;;;;;5034526;28;20490;-53
2021/04/11 10:35:11;;;;;;;3.28;1.60;;;23.90;32.40;;;;;;5051235;28;20348;-49
2021/04/11 10:38:25;;;;;;;2.17;1.25;;;23.90;31.90;;;;;;5053405;28;20025;-48
2021/04/11 10:41:15;;;;;;;1.35;0.88;;;23.90;31.50;;;;;;4974868;28;20383;-56
2021/04/11 10:44:05;;;;;;;3.15;0.98;;;23.90;31.10;;;;;;5048648;28;20045;-48
2021/04/11 10:47:08;;;;;;;1.55;0.80;;;23.90;30.90;;;;;;5049522;28;20029;-52
2021/04/11 10:49:52;;;;;;;2.15;1.20;;;23.90;30.70;;;;;;5035132;28;20144;-54
2021/04/11 10:52:28;;;;;;;1.42;0.70;;;23.80;30.70;;;;;;5038620;28;20479;-58
2021/04/11 10:55:10;;;;;;;1.63;0.65;;;23.80;30.50;;;;;;5016082;28;20038;-56
2021/04/11 10:57:59;;;;;;;0.98;0.50;;;23.80;30.30;;;;;;5048358;28;20033;-56
2021/04/11 11:00:54;;;;;;;1.58;0.70;;;23.80;30.10;;;;;;5053665;28;20039;-53
2021/04/11 11:03:53;;;;;;;0.80;0.52;;;23.80;30.00;;;;;;5048350;28;20043;-58
2021/04/11 11:06:59;;;;;;;0.70;0.50;;;23.80;29.90;;;;;;5010262;28;20057;-54
2021/04/11 11:09:45;;;;;;;1.10;0.60;;;23.80;29.70;;;;;;5041738;28;20061;-51
2021/04/11 11:12:29;;;;;;;2.08;0.85;;;23.80;29.60;;;;;;5037903;28;20033;-59
2021/04/11 11:15:10;;;;;;;2.03;0.50;;;23.80;29.50;;;;;;5038102;28;20053;-55
2021/04/11 11:18:00;;;;;;;1.05;0.60;;;23.80;29.40;;;;;;5027281;28;20025;-59
2021/04/11 11:20:54;;;;;;;1.20;0.60;;;23.80;29.30;;;;;;5036666;28;20112;-57
2021/04/11 11:23:44;;;;;;;0.60;0.50;;;23.80;29.20;;;;;;5046051;28;20056;-46
2021/04/11 11:27:06;;;;;;;1.10;0.50;;;23.70;29.10;;;;;;5039177;28;20033;-48
2021/04/11 11:29:49;;;;;;;1.35;0.57;;;23.70;29.00;;;;;;4999157;28;20396;-45
2021/04/11 11:32:44;;;;;;;0.85;0.40;;;23.70;29.00;;;;;;4987491;28;20076;-52
2021/04/11 11:35:14;;;;;;;1.23;0.40;;;23.70;28.80;;;;;;5031556;28;20041;-55
2021/04/11 11:37:52;;;;;;;1.30;0.43;;;23.70;28.80;;;;;;5043205;28;20033;-52
2021/04/11 11:40:44;;;;;;;0.65;0.32;;;23.60;28.70;;;;;;5024854;28;20040;-49
2021/04/11 11:43:19;;;;;;;1.50;0.50;;;23.70;28.60;;;;;;5024373;28;20052;-47
2021/04/11 11:46:07;;;;;;;0.82;0.40;;;23.60;28.60;;;;;;5050680;28;20486;-48
2021/04/11 11:49:16;;;;;;;0.60;0.30;;;23.60;28.70;;;;;;5047052;28;20042;-55
2021/04/11 11:52:01;;;;;;;0.40;0.30;;;23.60;28.80;;;;;;5045957;28;20041;-45
2021/04/11 11:54:45;;;;;;;1.38;0.40;;;23.60;28.80;;;;;;5042704;28;20432;-51
2021/04/11 11:57:21;;;;;;;0.45;0.30;;;23.60;28.90;;;;;;5043671;28;20037;-48
2021/04/11 12:00:06;;;;;;;0.65;0.30;;;23.60;29.00;;;;;;5043769;28;20033;-47
2021/04/11 12:02:32;;;;;;;0.38;0.30;;;23.60;28.90;;;;;;5026317;28;20341;-50
2021/04/11 12:05:13;;;;;;;0.50;0.30;;;23.60;28.80;;;;;;5036508;28;20037;-44
2021/04/11 12:07:48;;;;;;;0.80;0.40;;;23.60;28.70;;;;;;5035650;28;20033;-45
2021/04/11 12:10:31;;;;;;;1.35;0.43;;;23.60;28.60;;;;;;5046810;28;20041;-47
2021/04/11 12:13:18;;;;;;;0.63;0.30;;;23.60;28.50;;;;;;5053398;28;20394;-49
2021/04/11 12:15:53;;;;;;;1.65;0.30;;;23.60;28.40;;;;;;5048211;28;20477;-50
2021/04/11 12:18:38;;;;;;;0.88;0.35;;;23.60;28.30;;;;;;5055220;28;20067;-53
2021/04/11 12:21:16;;;;;;;0.98;0.38;;;23.60;28.20;;;;;;5047158;28;20033;-45
2021/04/11 12:24:18;;;;;;;1.65;0.30;;;23.60;28.10;;;;;;5036148;28;20091;-46
2021/04/11 12:26:50;;;;;;;1.17;0.30;;;23.60;28.00;;;;;;5036041;28;20361;-46
2021/04/11 12:29:20;;;;;;;0.93;0.60;;;23.50;28.00;;;;;;5035784;28;20053;-45
2021/04/11 12:32:10;;;;;;;1.13;0.20;;;23.50;27.90;;;;;;5036982;28;20110;-45
2021/04/11 12:34:48;;;;;;;0.68;0.30;;;23.50;27.80;;;;;;5038482;28;20076;-48
2021/04/11 12:38:07;;;;;;;0.30;0.20;;;23.50;27.70;;;;;;5018123;28;20382;-46
2021/04/11 12:40:58;;;;;;;0.30;0.20;;;23.50;27.60;;;;;;4992807;28;20117;-47
2021/04/11 12:43:47;;;;;;;0.50;0.20;;;23.50;27.60;;;;;;4966605;28;20126;-52
2021/04/11 12:46:34;;;;;;;0.28;0.20;;;23.50;27.50;;;;;;5029941;28;20084;-52
2021/04/11 12:49:38;;;;;;;0.77;0.20;;;23.50;27.50;;;;;;5037937;28;20045;-46
2021/04/11 12:52:07;;;;;;;0.65;0.20;;;23.50;27.40;;;;;;5044378;28;20106;-48
2021/04/11 12:54:41;;;;;;;0.50;0.17;;;23.40;27.40;;;;;;5047884;28;20082;-48
2021/04/11 12:57:11;;;;;;;0.40;0.20;;;23.40;27.30;;;;;;5050803;28;20054;-49
2021/04/11 12:59:41;;;;;;;0.70;0.40;;;23.50;27.30;;;;;;5052208;28;20047;-51
2021/04/11 13:02:23;;;;;;;0.38;0.13;;;23.40;27.20;;;;;;5038479;28;20041;-50
2021/04/11 13:05:02;;;;;;;0.43;0.20;;;23.50;27.10;;;;;;5037517;28;20033;-51
2021/04/11 13:07:38;;;;;;;0.22;0.10;;;23.50;27.10;;;;;;5043853;28;20035;-52
2021/04/11 13:10:21;;;;;;;0.45;0.20;;;23.40;27.10;;;;;;5049845;28;20366;-52
2021/04/11 13:12:58;;;;;;;0.30;0.20;;;23.50;27.10;;;;;;5047820;28;20029;-45
2021/04/11 13:15:33;;;;;;;0.98;0.30;;;23.40;27.10;;;;;;5053340;28;20041;-52
2021/04/11 13:18:13;;;;;;;1.17;0.40;;;23.40;27.20;;;;;;5025226;28;20444;-52
2021/04/11 13:20:44;;;;;;;0.57;0.20;;;23.50;27.40;;;;;;5036629;28;20041;-55
2021/04/11 13:23:33;;;;;;;0.68;0.20;;;23.50;27.50;;;;;;5036131;28;20029;-54
2021/04/11 13:26:03;;;;;;;0.45;0.20;;;23.40;27.50;;;;;;5047331;28;20044;-54
2021/04/11 13:28:38;;;;;;;0.20;0.20;;;23.40;27.50;;;;;;5046725;28;20025;-53
2021/04/11 13:31:13;;;;;;;0.75;0.30;;;23.40;27.50;;;;;;5048237;28;20070;-51
2021/04/11 13:33:51;;;;;;;0.45;0.30;;;23.40;27.50;;;;;;5049313;28;20457;-52
2021/04/11 13:36:37;;;;;;;1.10;0.13;;;23.40;27.40;;;;;;5018628;28;20037;-54
2021/04/11 13:39:20;;;;;;;1.45;0.30;;;23.40;27.40;;;;;;5038041;28;20039;-51
2021/04/11 13:41:54;;;;;;;0.28;0.15;;;23.30;27.30;;;;;;5045748;28;20355;-53
2021/04/11 13:44:41;;;;;;;0.50;0.20;;;23.30;27.20;;;;;;5041157;28;20075;-52
2021/04/11 13:47:36;;;;;;;0.68;0.20;;;23.30;27.20;;;;;;5036679;28;20411;-53
2021/04/11 13:50:22;;;;;;;1.42;0.30;;;23.20;27.00;;;;;;4995500;28;20064;-52
2021/04/11 13:52:59;;;;;;;0.35;0.10;;;23.30;27.10;;;;;;5013742;28;20353;-53
2021/04/11 13:55:41;;;;;;;1.90;0.20;;;23.20;27.00;;;;;;5008752;28;20038;-49
2021/04/11 13:58:25;;;;;;;0.82;0.28;;;23.20;27.00;;;;;;5013155;28;20361;-49